< < Back
Terminal Aerodrome Forecast


Current Version              Previous Versions:   1  2  3  4  5  6  7  8  9  

Terminal Aerodrome Forecast

322
FTUS42 KGSP 261120
TAFGSP
TAF
KGSP 261120Z 2612/2712 00000KT P6SM FEW250
     FM261500 04004KT P6SM FEW045
     FM262100 10005KT P6SM SCT045=

Latest METAR

148
SAUS70 KWBC 261700 RRK
MTRGSP
METAR KGSP 261653Z 04006KT 10SM CLR 33/22 A3012 RMK AO2 SLP185
T03280217


USA.gov is the U.S. government's official web portal to all federal, state and local government web resources and services.